Canoinhas, Brazil
Current Conditions -  °F | °C
As of 11:00 PM on Tuesday 27 Jan 2015 (Local Time) from SBCT Reporting Station
Broken Clouds Broken Clouds  
Wind Chill: 72°   Ceiling: 1300
Heat Index: 72°   Visibility: 6mi
Dew Point: 66°   Wind: 9mph
Humidity: 83%   Direction: 20°NNE
Pressure: 30.09"   Gusts: NA
Location:  26.18°S, 50.4°W
Report Text: SBCT 280100Z 02008KT 9999 BKN013 BKN025 22/19 Q1019 RETS
Loading
Personal Weather Stations






























Interactive Weather Map New forecast layout! Learn more

10-Day Weather Forecast

Advertisements
Track Severe Weather on mobile